Terminal Aerodrome Forecast
Issued by NWS

Home | Current Version | Previous Version | Text Only | Print | Product List | Glossary On
Versions: 1 2 3 4 5 6 7 8 9 10 11 12 13 14 15 16 17
000
FTUS42 KTAE 021800 AAA
TAFABY
TAF AMD
KABY 021857Z 0219/0318 00000KT P6SM OVC021
     FM022000 29004KT P6SM BKN025
     FM030000 00000KT P6SM OVC050
     FM030600 10003KT 4SM BR OVC025
     FM031000 00000KT 2SM BR OVC002
     FM031600 14006KT P6SM OVC025=

USA.gov is the U.S. government's official web portal to all federal, state and local government web resources and services.